createdAt,value
2018-03-31T00:01:10.629Z,69.40
2018-03-31T00:03:37.623Z,69.60
2018-03-31T00:06:04.636Z,69.80
2018-03-31T00:08:31.637Z,69.60
2018-03-31T00:10:59.421Z,69.50
2018-03-31T00:13:26.418Z,69.50
2018-03-31T00:15:53.463Z,69.10
2018-03-31T00:18:20.569Z,68.60
2018-03-31T00:20:47.589Z,68.90
2018-03-31T00:23:15.358Z,69.10
2018-03-31T00:25:42.360Z,69.00
2018-03-31T00:28:09.376Z,69.10
2018-03-31T00:30:36.398Z,68.90
2018-03-31T00:33:04.181Z,69.20
2018-03-31T00:35:31.173Z,69.20
2018-03-31T00:37:58.186Z,68.80
2018-03-31T00:40:25.188Z,69.50
2018-03-31T00:42:52.938Z,69.10
2018-03-31T00:45:19.953Z,69.10
2018-03-31T00:47:46.996Z,69.60
2018-03-31T00:50:14.029Z,69.40
2018-03-31T00:52:41.028Z,69.30
2018-03-31T00:55:08.827Z,68.90
2018-03-31T00:57:35.840Z,68.80
2018-03-31T01:00:02.869Z,68.90
2018-03-31T01:02:29.867Z,69.20
2018-03-31T01:04:56.875Z,69.10
2018-03-31T01:07:23.897Z,68.90
2018-03-31T01:09:50.905Z,68.60
2018-03-31T01:12:17.919Z,68.20
2018-03-31T01:14:44.944Z,67.70
2018-03-31T01:17:11.964Z,68.20
2018-03-31T01:19:38.980Z,68.40
2018-03-31T01:22:06.787Z,67.50
2018-03-31T01:24:33.790Z,67.50
2018-03-31T01:27:01.571Z,67.70
2018-03-31T01:29:28.573Z,67.80
2018-03-31T01:31:55.577Z,68.00
2018-03-31T01:34:22.608Z,67.70
2018-03-31T01:36:49.610Z,67.40
2018-03-31T01:39:16.628Z,67.90
2018-03-31T01:41:43.631Z,67.90
2018-03-31T01:44:11.419Z,67.80
2018-03-31T01:46:38.415Z,67.70
2018-03-31T01:49:05.436Z,67.80
2018-03-31T01:51:32.456Z,67.70
2018-03-31T01:53:59.482Z,68.70
2018-03-31T01:56:27.253Z,68.30
2018-03-31T01:58:55.023Z,68.10
2018-03-31T02:01:22.031Z,68.10
2018-03-31T02:03:49.036Z,68.10
2018-03-31T02:06:16.048Z,68.30
2018-03-31T02:08:43.809Z,68.40
2018-03-31T02:11:11.577Z,68.40
2018-03-31T02:13:39.344Z,68.00
2018-03-31T02:16:07.122Z,68.30
2018-03-31T02:18:34.123Z,68.20
2018-03-31T02:21:01.136Z,68.20
2018-03-31T02:23:28.255Z,68.10
2018-03-31T02:25:56.014Z,67.80
2018-03-31T02:28:23.802Z,68.10
2018-03-31T02:30:50.808Z,68.10
2018-03-31T02:33:17.899Z,67.60
2018-03-31T02:35:44.907Z,68.00
2018-03-31T02:38:11.968Z,68.50
2018-03-31T02:40:39.744Z,68.70
2018-03-31T02:43:07.519Z,67.70
2018-03-31T02:45:34.524Z,67.60
2018-03-31T02:48:01.542Z,67.50
2018-03-31T02:50:28.567Z,68.00
2018-03-31T02:52:55.566Z,67.50
2018-03-31T02:55:22.601Z,68.30
2018-03-31T02:57:49.606Z,67.60
2018-03-31T03:00:16.618Z,67.70
2018-03-31T03:02:44.452Z,68.40
2018-03-31T03:05:11.485Z,68.40
2018-03-31T03:07:38.483Z,68.20
2018-03-31T03:10:06.324Z,68.40
2018-03-31T03:12:33.401Z,68.30
2018-03-31T03:15:01.179Z,68.50
2018-03-31T03:17:28.208Z,68.40
2018-03-31T03:19:55.983Z,69.30
2018-03-31T03:22:23.774Z,69.70
2018-03-31T03:24:50.812Z,69.60
2018-03-31T03:27:17.895Z,69.80
2018-03-31T03:29:45.026Z,70.10
2018-03-31T03:32:12.110Z,70.10
2018-03-31T03:34:39.185Z,71.10
2018-03-31T03:37:07.026Z,70.50
2018-03-31T03:39:34.072Z,70.50
2018-03-31T03:42:01.107Z,71.10
2018-03-31T03:44:28.164Z,71.10
2018-03-31T03:46:55.182Z,71.40
2018-03-31T03:49:22.221Z,71.80
2018-03-31T03:51:49.216Z,72.50
2018-03-31T03:54:16.268Z,72.90
2018-03-31T03:56:44.037Z,74.20
2018-03-31T03:59:11.791Z,74.60
2018-03-31T04:01:38.818Z,75.30
2018-03-31T04:04:05.816Z,75.20
2018-03-31T04:06:32.836Z,75.30
2018-03-31T04:09:00.603Z,79.00
2018-03-31T04:11:28.387Z,79.70
2018-03-31T04:13:55.398Z,79.60
2018-03-31T04:16:22.416Z,76.90
2018-03-31T04:18:49.417Z,76.20
2018-03-31T04:21:16.424Z,76.80
2018-03-31T04:23:43.435Z,76.90
2018-03-31T04:26:10.431Z,77.80
2018-03-31T04:28:37.465Z,78.20
2018-03-31T04:31:04.502Z,77.90
2018-03-31T04:33:31.511Z,77.10
2018-03-31T04:35:58.526Z,78.80
2018-03-31T04:38:25.533Z,79.50
2018-03-31T04:40:52.564Z,79.70
2018-03-31T04:43:19.583Z,79.10
2018-03-31T04:45:47.354Z,79.70
2018-03-31T04:48:14.381Z,79.70
2018-03-31T04:50:42.313Z,78.30
2018-03-31T04:53:09.608Z,78.30
2018-03-31T04:55:37.470Z,78.70
2018-03-31T04:58:05.318Z,79.10
2018-03-31T05:00:32.549Z,78.90
2018-03-31T05:02:59.670Z,78.60
2018-03-31T05:05:26.820Z,78.60
2018-03-31T05:07:54.139Z,78.90
2018-03-31T05:10:21.954Z,80.80
2018-03-31T05:12:49.191Z,80.70
2018-03-31T05:15:16.547Z,81.60
2018-03-31T05:17:43.659Z,81.60
2018-03-31T05:20:10.846Z,81.70
2018-03-31T05:22:38.134Z,81.40
2018-03-31T05:25:05.284Z,81.30
2018-03-31T05:27:32.562Z,81.10
2018-03-31T05:29:59.733Z,80.30
2018-03-31T05:32:27.722Z,80.90
2018-03-31T05:34:54.841Z,80.90
2018-03-31T05:37:22.823Z,80.30
2018-03-31T05:39:50.727Z,80.90
2018-03-31T05:42:17.824Z,80.90
2018-03-31T05:44:45.701Z,80.40
2018-03-31T05:47:13.557Z,80.80
2018-03-31T05:49:41.486Z,80.90
2018-03-31T05:52:08.708Z,80.90
2018-03-31T05:54:35.906Z,80.50
2018-03-31T05:57:03.112Z,80.20
2018-03-31T05:59:30.264Z,78.60
2018-03-31T06:01:57.461Z,79.60
2018-03-31T06:04:24.612Z,78.70
2018-03-31T06:06:51.981Z,78.30
2018-03-31T06:09:19.064Z,77.70
2018-03-31T06:11:46.269Z,77.80
2018-03-31T06:14:13.553Z,77.30
2018-03-31T06:16:41.458Z,78.10
2018-03-31T06:19:08.689Z,78.10
2018-03-31T06:21:36.164Z,77.20
2018-03-31T06:24:03.377Z,78.00
2018-03-31T06:26:31.233Z,79.30
2018-03-31T06:28:59.110Z,78.30
2018-03-31T06:31:27.063Z,79.20
2018-03-31T06:33:54.225Z,79.10
2018-03-31T06:36:21.377Z,78.70
2018-03-31T06:38:49.235Z,79.30
2018-03-31T06:41:17.116Z,78.30
2018-03-31T06:43:45.152Z,76.80
2018-03-31T06:46:12.229Z,76.80
2018-03-31T06:48:40.184Z,76.00
2018-03-31T06:51:08.006Z,77.20
2018-03-31T06:53:35.083Z,77.20
2018-03-31T06:56:02.285Z,77.20
2018-03-31T06:58:29.357Z,78.00
2018-03-31T07:00:56.533Z,83.30
2018-03-31T07:03:23.686Z,79.10
2018-03-31T07:05:58.086Z,75.60
2018-03-31T07:44:21.497Z,41.00
2018-03-31T07:46:48.860Z,46.00
2018-03-31T07:49:16.734Z,54.80
2018-03-31T07:51:44.660Z,54.80
2018-03-31T07:54:11.878Z,57.30
2018-03-31T07:56:39.704Z,60.50
2018-03-31T07:59:06.882Z,60.50
2018-03-31T08:01:34.745Z,63.30
2018-03-31T08:04:02.587Z,64.60
2018-03-31T08:06:29.821Z,63.70
2018-03-31T08:08:57.054Z,65.60
2018-03-31T08:11:24.333Z,66.60
2018-03-31T08:13:51.494Z,66.90
2018-03-31T08:16:18.987Z,66.10
2018-03-31T08:18:47.203Z,67.20
2018-03-31T08:21:14.374Z,67.20
2018-03-31T08:23:42.686Z,67.90
2018-03-31T08:28:44.281Z,68.70
2018-03-31T08:31:13.273Z,68.70
2018-03-31T08:33:40.502Z,69.60
2018-03-31T08:36:08.574Z,68.00
2018-03-31T08:38:36.770Z,67.40
2018-03-31T08:41:03.860Z,67.40
2018-03-31T08:43:30.968Z,67.30
2018-03-31T08:45:58.322Z,67.70
2018-03-31T08:48:25.576Z,70.20
2018-03-31T08:50:52.907Z,68.70
2018-03-31T08:53:20.798Z,67.80
2018-03-31T08:55:48.254Z,67.70
2018-03-31T08:58:15.480Z,66.80
2018-03-31T09:00:43.335Z,66.00
2018-03-31T09:03:10.524Z,66.00
2018-03-31T09:05:37.774Z,65.80
2018-03-31T09:08:05.069Z,66.60
2018-03-31T09:10:32.285Z,66.70
2018-03-31T09:12:59.497Z,67.10
2018-03-31T09:15:27.447Z,66.60
2018-03-31T09:17:54.697Z,66.50
2018-03-31T09:20:21.833Z,67.20
2018-03-31T09:22:48.926Z,67.30
2018-03-31T09:25:16.847Z,67.80
2018-03-31T09:27:44.089Z,67.70
2018-03-31T09:30:11.219Z,65.40
2018-03-31T09:32:39.802Z,65.20
2018-03-31T09:35:06.950Z,65.00
2018-03-31T09:37:34.252Z,65.60
2018-03-31T09:40:01.574Z,65.20
2018-03-31T09:42:29.484Z,66.00
2018-03-31T09:44:56.781Z,66.00
2018-03-31T09:47:23.881Z,65.60
2018-03-31T09:49:51.075Z,64.90
2018-03-31T09:52:18.160Z,64.00
2018-03-31T09:54:45.278Z,66.00
2018-03-31T09:57:12.426Z,65.60
2018-03-31T09:59:39.641Z,66.20
2018-03-31T10:02:06.775Z,65.30
2018-03-31T10:04:33.894Z,65.90
2018-03-31T10:07:01.129Z,64.60
2018-03-31T10:09:28.586Z,65.80
2018-03-31T10:11:56.043Z,65.80
2018-03-31T10:14:23.474Z,65.10
2018-03-31T10:16:51.299Z,65.60
2018-03-31T10:19:18.514Z,65.60
2018-03-31T10:21:45.634Z,63.40
2018-03-31T10:24:13.464Z,63.10
2018-03-31T10:26:40.676Z,63.10
2018-03-31T10:29:07.806Z,62.90
2018-03-31T10:31:35.630Z,59.60
2018-03-31T10:34:02.749Z,59.60
2018-03-31T10:36:29.868Z,61.10
2018-03-31T10:38:57.085Z,62.10
2018-03-31T10:41:24.259Z,61.10
2018-03-31T10:43:51.322Z,61.40
2018-03-31T10:46:19.176Z,57.60
2018-03-31T10:48:47.081Z,56.50
2018-03-31T10:51:14.152Z,56.80
2018-03-31T10:53:41.188Z,56.90
2018-03-31T10:56:08.245Z,57.10
2018-03-31T10:58:35.942Z,56.90
2018-03-31T11:01:03.577Z,56.60
2018-03-31T11:03:30.779Z,55.50
2018-03-31T11:05:58.579Z,57.10
2018-03-31T11:08:25.622Z,57.10
2018-03-31T11:10:52.702Z,59.40
2018-03-31T11:13:19.807Z,57.00
2018-03-31T11:15:47.031Z,58.50
2018-03-31T11:18:14.098Z,59.10
2018-03-31T11:20:41.217Z,59.30
2018-03-31T11:23:08.320Z,60.40
2018-03-31T11:25:35.355Z,58.40
2018-03-31T11:28:03.273Z,58.10
2018-03-31T11:30:30.367Z,58.10
2018-03-31T11:32:57.506Z,58.00
2018-03-31T11:35:24.553Z,58.60
2018-03-31T11:37:51.578Z,58.00
2018-03-31T11:40:19.414Z,59.00
2018-03-31T11:42:46.701Z,59.00
2018-03-31T11:45:14.555Z,58.40
2018-03-31T11:47:42.391Z,58.60
2018-03-31T11:50:09.502Z,58.60
2018-03-31T11:52:36.568Z,57.80
2018-03-31T11:55:03.635Z,58.10
2018-03-31T11:57:30.858Z,57.10
2018-03-31T11:59:57.954Z,54.90
2018-03-31T12:02:25.051Z,54.10
2018-03-31T12:04:52.138Z,52.70
2018-03-31T12:07:19.188Z,54.60
2018-03-31T12:09:46.324Z,52.90
2018-03-31T12:12:13.378Z,53.20
2018-03-31T12:14:40.435Z,52.10
2018-03-31T12:17:07.471Z,50.40
2018-03-31T12:19:34.489Z,50.30
2018-03-31T12:22:01.639Z,52.10
2018-03-31T12:24:28.659Z,52.80
2018-03-31T12:26:56.451Z,52.60
2018-03-31T12:29:23.590Z,52.60
2018-03-31T12:31:50.620Z,52.50
2018-03-31T12:34:18.437Z,53.60
2018-03-31T12:36:45.448Z,53.50
2018-03-31T12:39:12.608Z,53.50
2018-03-31T12:41:39.646Z,54.00
2018-03-31T12:44:06.824Z,54.50
2018-03-31T12:46:34.024Z,54.80
2018-03-31T12:49:01.870Z,54.30
2018-03-31T12:51:28.993Z,53.60
2018-03-31T12:53:56.064Z,54.80
2018-03-31T12:56:23.167Z,54.70
2018-03-31T12:58:50.287Z,55.00
2018-03-31T13:01:18.175Z,53.60
2018-03-31T13:03:45.272Z,53.50
2018-03-31T13:06:12.344Z,54.80
2018-03-31T13:08:39.532Z,55.30
2018-03-31T13:11:06.646Z,54.40
2018-03-31T13:13:34.458Z,55.70
2018-03-31T13:16:01.547Z,55.40
2018-03-31T13:18:28.643Z,54.60
2018-03-31T13:20:55.641Z,54.30
2018-03-31T13:23:22.664Z,54.60
2018-03-31T13:25:49.654Z,55.20
2018-03-31T13:28:17.449Z,54.60
2018-03-31T13:30:44.457Z,54.60
2018-03-31T13:33:11.486Z,54.70
2018-03-31T13:35:38.556Z,56.30
2018-03-31T13:38:05.648Z,55.70
2018-03-31T13:40:32.724Z,56.80
2018-03-31T13:42:59.795Z,56.70
2018-03-31T13:45:27.671Z,55.20
2018-03-31T13:47:55.460Z,56.00
2018-03-31T13:50:22.554Z,55.90
2018-03-31T13:52:49.679Z,56.10
2018-03-31T13:55:16.747Z,56.70
2018-03-31T13:57:43.822Z,56.00
2018-03-31T14:00:10.944Z,56.20
2018-03-31T14:02:38.043Z,55.80
2018-03-31T14:05:05.086Z,55.10
2018-03-31T14:07:32.918Z,56.20
2018-03-31T14:10:00.132Z,56.10
2018-03-31T14:12:27.931Z,56.00
2018-03-31T14:14:55.723Z,56.50
2018-03-31T14:17:23.584Z,56.30
2018-03-31T14:19:51.376Z,56.80
2018-03-31T14:22:18.460Z,56.70
2018-03-31T14:24:45.521Z,56.50
2018-03-31T14:27:12.587Z,56.60
2018-03-31T14:29:39.676Z,56.30
2018-03-31T14:32:06.717Z,56.80
2018-03-31T14:34:33.920Z,56.30
2018-03-31T14:37:01.775Z,56.90
2018-03-31T14:39:28.857Z,56.90
2018-03-31T14:41:57.796Z,56.90
2018-03-31T14:44:24.890Z,56.90
2018-03-31T14:46:52.900Z,56.20
2018-03-31T14:49:20.051Z,56.30
2018-03-31T14:51:47.120Z,57.00
2018-03-31T14:54:14.187Z,56.40
2018-03-31T14:56:41.322Z,56.40
2018-03-31T14:59:08.398Z,56.50
2018-03-31T15:01:35.531Z,56.10
2018-03-31T15:04:02.610Z,56.40
2018-03-31T15:06:30.494Z,56.80
2018-03-31T15:08:57.686Z,57.30
2018-03-31T15:11:24.722Z,56.80
2018-03-31T15:13:51.816Z,57.00
2018-03-31T15:16:18.899Z,57.30
2018-03-31T15:18:45.932Z,57.80
2018-03-31T15:21:12.986Z,57.40
2018-03-31T15:23:40.063Z,57.70
2018-03-31T15:26:07.095Z,58.40
2018-03-31T15:28:34.259Z,57.60
2018-03-31T15:31:01.368Z,57.40
2018-03-31T15:33:29.264Z,58.10
2018-03-31T15:35:57.034Z,58.00
2018-03-31T15:38:24.118Z,58.00
2018-03-31T15:40:51.168Z,58.10
2018-03-31T15:43:18.312Z,58.10
2018-03-31T15:45:45.495Z,58.20
2018-03-31T15:48:13.357Z,59.00
2018-03-31T15:50:41.202Z,59.10
2018-03-31T15:53:08.257Z,59.10
2018-03-31T15:55:35.379Z,59.20
2018-03-31T15:58:02.471Z,59.40
2018-03-31T16:00:30.334Z,59.20
2018-03-31T16:02:58.348Z,58.80
2018-03-31T16:05:25.448Z,58.70
2018-03-31T16:07:53.384Z,59.60
2018-03-31T16:10:20.500Z,59.40
2018-03-31T16:12:47.627Z,58.80
2018-03-31T16:15:15.493Z,59.00
2018-03-31T16:17:43.532Z,59.90
2018-03-31T16:20:11.473Z,60.20
2018-03-31T16:22:38.672Z,60.10
2018-03-31T16:25:05.825Z,59.60
2018-03-31T16:27:33.903Z,64.40
2018-03-31T16:30:01.896Z,65.90
2018-03-31T16:32:30.256Z,65.90
2018-03-31T16:34:58.237Z,64.50
2018-03-31T16:37:25.479Z,64.50
2018-03-31T16:39:53.547Z,66.90
2018-03-31T16:42:21.509Z,66.10
2018-03-31T16:44:49.485Z,65.30
2018-03-31T16:47:17.327Z,66.30
2018-03-31T16:49:44.417Z,66.30
2018-03-31T16:52:11.620Z,65.70
2018-03-31T16:54:42.634Z,66.50
2018-03-31T16:57:09.725Z,68.00
2018-03-31T16:59:37.762Z,71.20
2018-03-31T17:02:04.808Z,71.10
2018-03-31T17:04:31.936Z,72.60
2018-03-31T17:06:59.013Z,72.10
2018-03-31T17:09:26.057Z,73.70
2018-03-31T17:11:53.254Z,73.60
2018-03-31T17:14:21.144Z,73.90
2018-03-31T17:16:48.193Z,73.90
2018-03-31T17:19:15.246Z,74.40
2018-03-31T17:21:42.442Z,73.90
2018-03-31T17:24:09.536Z,74.10
2018-03-31T17:26:36.957Z,72.90
2018-03-31T17:29:04.828Z,73.80
2018-03-31T17:31:32.717Z,75.10
2018-03-31T17:33:59.865Z,75.10
2018-03-31T17:36:26.919Z,74.60
2018-03-31T17:38:54.010Z,74.70
2018-03-31T17:41:21.021Z,74.80
2018-03-31T17:43:48.063Z,75.00
2018-03-31T17:46:15.140Z,74.10
2018-03-31T17:48:42.146Z,74.70
2018-03-31T17:51:09.185Z,74.80
2018-03-31T17:53:36.235Z,75.00
2018-03-31T17:56:04.022Z,77.10
2018-03-31T17:58:31.026Z,77.10
2018-03-31T18:00:58.989Z,75.60
2018-03-31T18:03:26.000Z,75.00
2018-03-31T18:05:53.019Z,74.70
2018-03-31T18:08:20.108Z,75.80
2018-03-31T18:10:47.133Z,77.10
2018-03-31T18:13:14.160Z,77.00
2018-03-31T18:15:41.222Z,76.40
2018-03-31T18:18:08.256Z,75.10
2018-03-31T18:20:35.308Z,74.50
2018-03-31T18:23:02.320Z,75.50
2018-03-31T18:25:30.255Z,75.40
2018-03-31T18:27:57.271Z,75.00
2018-03-31T18:30:24.277Z,75.30
2018-03-31T18:32:51.400Z,75.40
2018-03-31T18:35:18.455Z,75.70
2018-03-31T18:37:45.569Z,75.50
2018-03-31T18:40:12.606Z,75.90
2018-03-31T18:42:39.644Z,74.50
2018-03-31T18:45:06.694Z,74.00
2018-03-31T18:47:33.731Z,74.30
2018-03-31T18:50:01.621Z,74.40
2018-03-31T18:52:28.680Z,74.40
2018-03-31T18:54:55.759Z,73.50
2018-03-31T18:57:22.761Z,73.30
2018-03-31T18:59:49.830Z,73.40
2018-03-31T19:02:16.845Z,73.50
2018-03-31T19:04:43.864Z,73.00
2018-03-31T19:07:10.971Z,72.70
2018-03-31T19:09:37.986Z,72.50
2018-03-31T19:12:05.036Z,72.50
2018-03-31T19:14:32.066Z,72.70
2018-03-31T19:17:05.430Z,72.80
2018-03-31T19:19:32.459Z,72.80
2018-03-31T19:21:59.506Z,72.70
2018-03-31T19:24:26.531Z,72.10
2018-03-31T19:26:53.578Z,72.00
2018-03-31T19:29:20.623Z,71.20
2018-03-31T19:31:47.618Z,70.40
2018-03-31T19:34:14.822Z,70.40
2018-03-31T19:36:41.865Z,70.20
2018-03-31T19:39:09.025Z,69.80
2018-03-31T19:41:36.056Z,69.40
2018-03-31T19:44:03.153Z,69.50
2018-03-31T19:46:30.157Z,70.10
2018-03-31T19:48:57.213Z,70.30
2018-03-31T19:51:24.229Z,70.80
2018-03-31T19:53:51.990Z,71.50
2018-03-31T19:56:19.763Z,72.50
2018-03-31T19:58:47.568Z,71.60
2018-03-31T20:01:14.640Z,71.60
2018-03-31T20:03:41.666Z,71.80
2018-03-31T20:06:08.693Z,71.50
2018-03-31T20:08:35.686Z,71.60
2018-03-31T20:11:02.743Z,71.50
2018-03-31T20:13:29.790Z,72.50
2018-03-31T20:15:56.798Z,72.40
2018-03-31T20:18:23.926Z,71.80
2018-03-31T20:20:50.956Z,71.60
2018-03-31T20:23:18.773Z,71.80
2018-03-31T20:25:45.825Z,71.90
2018-03-31T20:28:12.892Z,71.30
2018-03-31T20:30:39.918Z,71.70
2018-03-31T20:33:06.963Z,71.50
2018-03-31T20:35:33.990Z,71.80
2018-03-31T20:38:01.047Z,70.90
2018-03-31T20:40:28.067Z,71.00
2018-03-31T20:42:55.189Z,70.50
2018-03-31T20:45:22.971Z,70.20
2018-03-31T20:47:50.068Z,70.10
2018-03-31T20:50:17.118Z,70.80
2018-03-31T20:52:44.171Z,70.70
2018-03-31T20:55:11.227Z,70.40
2018-03-31T20:57:38.267Z,69.30
2018-03-31T21:00:05.310Z,69.70
2018-03-31T21:02:32.325Z,69.80
2018-03-31T21:04:59.454Z,69.40
2018-03-31T21:07:26.509Z,68.90
2018-03-31T21:09:53.513Z,68.70
2018-03-31T21:12:20.612Z,68.50
2018-03-31T21:14:47.642Z,68.80
2018-03-31T21:17:15.452Z,69.70
2018-03-31T21:19:42.469Z,69.60
2018-03-31T21:22:09.588Z,70.50
2018-03-31T21:24:37.375Z,71.40
2018-03-31T21:27:04.414Z,71.30
2018-03-31T21:29:31.488Z,71.20
2018-03-31T21:31:59.293Z,70.10
2018-03-31T21:34:26.457Z,70.90
2018-03-31T21:36:53.506Z,70.70
2018-03-31T21:39:21.286Z,70.90
2018-03-31T21:41:49.505Z,70.70
2018-03-31T21:44:16.598Z,70.70
2018-03-31T21:46:44.422Z,71.30
2018-03-31T21:49:11.415Z,71.20
2018-03-31T21:51:39.209Z,70.60
2018-03-31T21:54:06.287Z,70.60
2018-03-31T21:56:33.326Z,70.40
2018-03-31T21:59:00.352Z,69.90
2018-03-31T22:01:27.379Z,69.20
2018-03-31T22:03:55.154Z,70.30
2018-03-31T22:06:22.166Z,70.30
2018-03-31T22:08:49.176Z,69.60
2018-03-31T22:11:16.187Z,69.00
2018-03-31T22:13:48.826Z,70.00
2018-03-31T22:16:15.916Z,70.40
2018-03-31T22:18:42.925Z,70.30
2018-03-31T22:21:10.058Z,70.50
2018-03-31T22:23:37.153Z,70.40
2018-03-31T22:26:04.954Z,69.70
2018-03-31T22:28:31.977Z,69.70
2018-03-31T22:30:58.993Z,70.10
2018-03-31T22:33:26.814Z,69.70
2018-03-31T22:35:53.913Z,69.70
2018-03-31T22:38:21.702Z,69.50
2018-03-31T22:40:48.711Z,69.30
2018-03-31T22:43:15.728Z,68.80
2018-03-31T22:45:42.860Z,69.30
2018-03-31T22:48:09.897Z,68.90
2018-03-31T22:50:36.913Z,68.90
2018-03-31T22:53:04.709Z,68.90
2018-03-31T22:55:31.756Z,68.80
2018-03-31T22:57:58.779Z,68.70
2018-03-31T23:00:26.606Z,68.80
2018-03-31T23:02:53.644Z,68.80
2018-03-31T23:05:20.638Z,68.30
2018-03-31T23:07:48.439Z,68.10
2018-03-31T23:10:15.458Z,68.00
2018-03-31T23:12:43.260Z,67.80
2018-03-31T23:15:10.280Z,67.70
2018-03-31T23:17:37.307Z,68.10
2018-03-31T23:20:05.082Z,68.60
2018-03-31T23:22:32.176Z,68.60
2018-03-31T23:24:59.357Z,69.00
2018-03-31T23:27:26.392Z,69.60
2018-03-31T23:29:53.471Z,67.90
2018-03-31T23:32:21.264Z,67.60
2018-03-31T23:34:48.280Z,67.60
2018-03-31T23:37:16.041Z,67.50
2018-03-31T23:39:43.808Z,67.70
2018-03-31T23:42:11.567Z,68.50
2018-03-31T23:44:39.391Z,68.50
2018-03-31T23:47:06.378Z,68.40
2018-03-31T23:49:34.416Z,68.90
2018-03-31T23:52:01.610Z,68.80
2018-03-31T23:54:29.385Z,68.70
2018-03-31T23:56:56.402Z,68.60
2018-03-31T23:59:23.435Z,68.40
